createdAt,value
2022-12-18T00:01:47.013Z,78.04
2022-12-18T00:04:28.097Z,77.31
2022-12-18T00:06:58.222Z,77.39
2022-12-18T00:09:31.293Z,77.11
2022-12-18T00:14:45.921Z,77.42
2022-12-18T00:17:15.746Z,77.28
2022-12-18T00:19:45.445Z,76.95
2022-12-18T00:22:15.159Z,77.07
2022-12-18T00:24:44.866Z,76.61
2022-12-18T00:27:14.675Z,76.45
2022-12-18T00:29:44.808Z,76.26
2022-12-18T00:32:14.524Z,76.51
2022-12-18T00:34:44.226Z,76.76
2022-12-18T00:37:19.759Z,76.90
2022-12-18T00:39:53.906Z,77.31
2022-12-18T00:42:42.349Z,77.85
2022-12-18T00:45:13.167Z,77.47
2022-12-18T00:47:43.369Z,77.35
2022-12-18T00:50:13.120Z,77.18
2022-12-18T00:52:44.999Z,77.38
2022-12-18T00:55:16.451Z,77.30
2022-12-18T00:57:46.763Z,77.56
2022-12-18T01:00:17.695Z,77.57
2022-12-18T01:02:47.914Z,77.98
2022-12-18T01:05:18.040Z,77.95
2022-12-18T01:07:47.841Z,77.91
2022-12-18T01:10:17.813Z,77.42
2022-12-18T01:12:47.924Z,78.14
2022-12-18T01:15:19.226Z,78.29
2022-12-18T01:17:57.122Z,78.55
2022-12-18T01:20:29.978Z,78.70
2022-12-18T01:23:00.905Z,79.22
2022-12-18T01:25:30.865Z,79.67
2022-12-18T01:28:00.649Z,79.73
2022-12-18T01:30:30.364Z,79.66
2022-12-18T01:33:00.197Z,79.63
2022-12-18T01:35:30.117Z,79.58
2022-12-18T01:38:00.017Z,79.56
2022-12-18T01:40:31.331Z,79.49
2022-12-18T01:43:01.537Z,79.23
2022-12-18T01:45:33.621Z,79.15
2022-12-18T01:48:09.042Z,79.38
2022-12-18T01:50:45.332Z,79.88
2022-12-18T01:53:17.701Z,77.86
2022-12-18T01:55:57.029Z,79.11
2022-12-18T01:58:45.901Z,78.96
2022-12-18T02:01:16.524Z,79.08
2022-12-18T02:03:47.190Z,79.02
2022-12-18T02:06:28.392Z,78.66
2022-12-18T02:09:23.839Z,78.40
2022-12-18T02:12:07.388Z,78.99
2022-12-18T02:14:56.611Z,79.07
2022-12-18T02:18:06.169Z,78.73
2022-12-18T02:20:45.541Z,78.72
2022-12-18T02:23:36.499Z,78.73
2022-12-18T02:26:31.675Z,78.52
2022-12-18T02:29:14.416Z,78.81
2022-12-18T02:31:57.126Z,78.76
2022-12-18T02:34:31.600Z,79.06
2022-12-18T02:37:05.095Z,79.43
2022-12-18T02:39:40.443Z,79.53
2022-12-18T02:42:14.351Z,79.94
2022-12-18T02:44:53.126Z,79.82
2022-12-18T02:47:31.958Z,80.32
2022-12-18T02:50:10.497Z,78.96
2022-12-18T02:53:03.277Z,79.87
2022-12-18T02:55:36.948Z,80.37
2022-12-18T02:58:40.858Z,80.52
2022-12-18T03:01:17.836Z,79.11
2022-12-18T03:04:00.357Z,80.38
2022-12-18T03:06:35.963Z,81.69
2022-12-18T03:09:12.669Z,81.31
2022-12-18T03:12:05.402Z,81.27
2022-12-18T03:14:39.634Z,81.35
2022-12-18T03:17:15.808Z,81.39
2022-12-18T03:19:48.787Z,81.39
2022-12-18T03:22:20.565Z,81.42
2022-12-18T03:24:55.994Z,82.20
2022-12-18T03:27:28.016Z,82.03
2022-12-18T03:30:09.579Z,81.80
2022-12-18T03:32:57.570Z,81.51
2022-12-18T03:35:37.318Z,81.79
2022-12-18T03:38:08.892Z,81.51
2022-12-18T03:40:51.792Z,81.73
2022-12-18T03:43:41.841Z,81.80
2022-12-18T03:46:44.117Z,81.37
2022-12-18T03:49:50.301Z,81.50
2022-12-18T03:52:32.743Z,82.06
2022-12-18T03:55:04.034Z,82.15
2022-12-18T03:57:36.156Z,81.79
2022-12-18T04:00:15.618Z,82.06
2022-12-18T04:03:08.456Z,81.85
2022-12-18T04:05:48.204Z,81.65
2022-12-18T04:08:20.736Z,82.21
2022-12-18T04:10:59.324Z,82.19
2022-12-18T04:13:40.594Z,82.51
2022-12-18T04:16:17.097Z,83.12
2022-12-18T04:18:49.246Z,83.23
2022-12-18T04:21:19.559Z,83.35
2022-12-18T04:23:50.867Z,83.17
2022-12-18T04:26:25.025Z,83.18
2022-12-18T04:29:24.438Z,82.83
2022-12-18T04:31:54.960Z,82.38
2022-12-18T04:34:25.735Z,82.18
2022-12-18T04:36:56.879Z,82.26
2022-12-18T04:39:28.439Z,81.70
2022-12-18T04:42:03.168Z,81.63
2022-12-18T04:44:33.392Z,82.03
2022-12-18T04:47:03.114Z,81.75
2022-12-18T04:49:32.871Z,81.34
2022-12-18T04:52:02.580Z,81.26
2022-12-18T04:54:32.313Z,81.04
2022-12-18T04:57:02.421Z,81.22
2022-12-18T04:59:32.371Z,80.92
2022-12-18T05:02:02.161Z,80.80
2022-12-18T05:04:31.916Z,80.93
2022-12-18T05:07:01.955Z,81.12
2022-12-18T05:09:31.854Z,81.14
2022-12-18T05:12:01.898Z,81.07
2022-12-18T05:14:31.708Z,81.14
2022-12-18T05:17:01.550Z,81.59
2022-12-18T05:19:31.356Z,81.55
2022-12-18T05:22:01.245Z,81.42
2022-12-18T05:24:30.961Z,81.55
2022-12-18T05:27:01.122Z,82.14
2022-12-18T05:29:31.077Z,82.18
2022-12-18T05:32:00.990Z,82.48
2022-12-18T05:34:30.881Z,82.45
2022-12-18T05:37:00.565Z,82.56
2022-12-18T05:39:30.325Z,82.86
2022-12-18T05:42:00.198Z,82.76
2022-12-18T05:44:29.883Z,82.74
2022-12-18T05:46:59.670Z,82.34
2022-12-18T05:49:29.785Z,82.57
2022-12-18T05:51:59.522Z,82.81
2022-12-18T05:54:33.110Z,82.51
2022-12-18T05:57:03.233Z,82.25
2022-12-18T05:59:32.944Z,82.15
2022-12-18T06:02:02.734Z,82.28
2022-12-18T06:04:32.543Z,82.24
2022-12-18T06:07:02.292Z,82.35
2022-12-18T06:09:33.047Z,82.31
2022-12-18T06:12:03.210Z,82.48
2022-12-18T06:14:32.904Z,82.58
2022-12-18T06:17:03.013Z,82.60
2022-12-18T06:19:32.781Z,82.83
2022-12-18T06:22:02.677Z,82.05
2022-12-18T06:24:33.788Z,82.43
2022-12-18T06:27:04.598Z,82.44
2022-12-18T06:29:34.336Z,82.74
2022-12-18T06:32:04.069Z,82.30
2022-12-18T06:34:34.593Z,82.24
2022-12-18T06:37:04.456Z,82.59
2022-12-18T06:39:34.190Z,82.64
2022-12-18T06:42:04.759Z,82.36
2022-12-18T06:44:34.863Z,82.13
2022-12-18T06:47:04.601Z,82.17
2022-12-18T06:49:34.362Z,82.13
2022-12-18T06:52:04.155Z,81.86
2022-12-18T06:54:33.980Z,81.99
2022-12-18T06:57:03.685Z,82.14
2022-12-18T06:59:33.387Z,81.89
2022-12-18T07:02:03.185Z,81.44
2022-12-18T07:04:33.350Z,81.67
2022-12-18T07:07:03.083Z,81.50
2022-12-18T07:09:33.899Z,81.50
2022-12-18T07:12:04.075Z,81.95
2022-12-18T07:14:34.022Z,81.88
2022-12-18T07:17:04.318Z,81.87
2022-12-18T07:19:34.510Z,81.67
2022-12-18T07:22:04.293Z,81.99
2022-12-18T07:24:36.656Z,82.47
2022-12-18T07:27:06.746Z,82.29
2022-12-18T07:29:38.034Z,82.73
2022-12-18T07:32:10.711Z,83.33
2022-12-18T07:34:42.592Z,83.64
2022-12-18T07:37:12.515Z,83.31
2022-12-18T07:39:42.348Z,83.55
2022-12-18T07:42:30.284Z,83.75
2022-12-18T07:45:04.257Z,84.01
2022-12-18T07:47:38.362Z,84.03
2022-12-18T07:50:08.999Z,83.99
2022-12-18T07:52:38.861Z,83.86
2022-12-18T07:55:08.831Z,83.85
2022-12-18T07:57:57.761Z,84.43
2022-12-18T08:00:28.879Z,83.92
2022-12-18T08:02:59.041Z,83.53
2022-12-18T08:05:30.496Z,83.21
2022-12-18T08:08:01.160Z,82.54
2022-12-18T08:10:31.298Z,82.58
2022-12-18T08:13:04.845Z,83.02
2022-12-18T08:15:35.488Z,82.64
2022-12-18T08:18:05.981Z,82.96
2022-12-18T08:20:38.322Z,83.04
2022-12-18T08:23:08.207Z,83.10
2022-12-18T08:25:37.980Z,82.81
2022-12-18T08:28:08.021Z,82.68
2022-12-18T08:30:38.671Z,82.92
2022-12-18T08:33:08.924Z,83.06
2022-12-18T08:35:45.425Z,83.34
2022-12-18T08:38:16.031Z,83.43
2022-12-18T08:40:45.805Z,83.43
2022-12-18T08:43:34.190Z,83.36
2022-12-18T08:46:04.543Z,83.26
2022-12-18T08:48:34.507Z,82.89
2022-12-18T08:51:04.715Z,82.81
2022-12-18T08:53:35.925Z,83.10
2022-12-18T08:56:06.918Z,83.16
2022-12-18T08:58:37.050Z,82.77
2022-12-18T09:01:09.633Z,82.88
2022-12-18T09:03:40.658Z,83.19
2022-12-18T09:06:11.580Z,83.12
2022-12-18T09:08:41.667Z,82.90
2022-12-18T09:11:25.375Z,82.65
2022-12-18T09:13:56.033Z,82.61
2022-12-18T09:16:31.972Z,82.51
2022-12-18T09:19:03.513Z,82.70
2022-12-18T09:21:36.774Z,83.08
2022-12-18T09:24:08.767Z,83.29
2022-12-18T09:26:39.165Z,83.84
2022-12-18T09:29:10.364Z,84.23
2022-12-18T09:31:41.582Z,84.25
2022-12-18T09:34:12.087Z,83.92
2022-12-18T09:36:42.336Z,83.62
2022-12-18T09:39:13.807Z,83.74
2022-12-18T09:41:57.283Z,84.11
2022-12-18T09:44:45.463Z,84.50
2022-12-18T09:47:38.029Z,84.93
2022-12-18T09:50:31.750Z,84.98
2022-12-18T09:53:11.245Z,85.07
2022-12-18T09:55:47.356Z,84.78
2022-12-18T09:58:47.811Z,85.02
2022-12-18T10:01:23.442Z,85.05
2022-12-18T10:03:54.229Z,85.55
2022-12-18T10:06:35.358Z,85.73
2022-12-18T10:09:45.025Z,85.37
2022-12-18T10:12:40.656Z,84.63
2022-12-18T10:15:47.689Z,85.09
2022-12-18T10:18:23.397Z,84.45
2022-12-18T10:21:01.378Z,84.45
2022-12-18T10:23:48.019Z,86.20
2022-12-18T10:26:18.518Z,86.38
2022-12-18T10:28:48.658Z,85.69
2022-12-18T10:31:25.351Z,85.77
2022-12-18T10:33:58.371Z,86.83
2022-12-18T10:36:28.384Z,87.34
2022-12-18T10:39:27.272Z,84.81
2022-12-18T10:42:33.585Z,85.94
2022-12-18T10:45:17.875Z,85.03
2022-12-18T10:47:52.204Z,84.14
2022-12-18T10:51:08.738Z,84.11
2022-12-18T10:53:30.316Z,84.37
2022-12-18T10:56:07.054Z,83.97
2022-12-18T10:58:42.151Z,85.05
2022-12-18T11:01:19.759Z,84.56
2022-12-18T11:04:03.223Z,85.20
2022-12-18T11:06:33.541Z,85.42
2022-12-18T11:09:22.108Z,85.18
2022-12-18T11:11:59.015Z,85.87
2022-12-18T11:14:36.204Z,85.18
2022-12-18T11:17:25.416Z,82.86
2022-12-18T11:19:58.763Z,83.29
2022-12-18T11:22:31.665Z,82.96
2022-12-18T11:25:31.870Z,82.26
2022-12-18T11:28:02.323Z,79.63
2022-12-18T11:30:35.507Z,80.27
2022-12-18T11:33:25.287Z,80.03
2022-12-18T11:36:00.709Z,79.10
2022-12-18T11:38:44.030Z,76.93
2022-12-18T11:41:23.430Z,79.40
2022-12-18T11:43:58.473Z,79.63
2022-12-18T11:46:42.621Z,79.83
2022-12-18T11:49:13.066Z,76.82
2022-12-18T11:52:05.777Z,76.78
2022-12-18T11:54:35.892Z,78.86
2022-12-18T11:57:15.484Z,76.84
2022-12-18T12:00:20.898Z,77.50
2022-12-18T12:03:08.559Z,75.85
2022-12-18T12:06:08.080Z,76.53
2022-12-18T12:09:29.372Z,76.21
2022-12-18T12:12:49.077Z,76.27
2022-12-18T12:15:46.483Z,76.24
2022-12-18T12:18:40.662Z,76.40
2022-12-18T12:21:15.980Z,75.91
2022-12-18T12:24:07.008Z,76.34
2022-12-18T12:26:47.847Z,73.71
2022-12-18T12:29:21.387Z,73.66
2022-12-18T12:32:30.296Z,72.21
2022-12-18T12:35:09.878Z,72.90
2022-12-18T12:37:54.644Z,69.59
2022-12-18T12:43:31.674Z,67.49
2022-12-18T12:46:10.130Z,68.19
2022-12-18T12:48:46.874Z,68.20
2022-12-18T12:51:17.158Z,66.24
2022-12-18T12:53:47.881Z,67.62
2022-12-18T12:56:21.032Z,69.02
2022-12-18T12:59:08.748Z,68.55
2022-12-18T13:02:10.741Z,70.19
2022-12-18T13:05:14.317Z,68.15
2022-12-18T13:07:53.542Z,68.60
2022-12-18T13:10:38.809Z,68.56
2022-12-18T13:13:17.167Z,66.91
2022-12-18T13:16:10.272Z,65.31
2022-12-18T13:18:50.463Z,63.20
2022-12-18T13:21:26.791Z,60.68
2022-12-18T13:23:59.459Z,60.01
2022-12-18T13:26:29.300Z,57.47
2022-12-18T13:29:01.039Z,57.01
2022-12-18T13:31:42.840Z,57.23
2022-12-18T13:34:26.897Z,59.53
2022-12-18T13:37:19.334Z,58.84
2022-12-18T13:39:49.664Z,59.71
2022-12-18T13:42:39.964Z,60.81
2022-12-18T13:45:57.372Z,62.18
2022-12-18T13:48:29.793Z,63.07
2022-12-18T13:51:09.490Z,63.74
2022-12-18T13:53:51.856Z,64.10
2022-12-18T13:56:27.596Z,63.38
2022-12-18T13:59:24.280Z,64.02
2022-12-18T14:02:18.788Z,65.05
2022-12-18T14:04:49.022Z,64.75
2022-12-18T14:07:22.182Z,63.74
2022-12-18T14:10:12.038Z,64.07
2022-12-18T14:13:02.254Z,64.23
2022-12-18T14:15:41.832Z,63.94
2022-12-18T14:18:29.152Z,66.39
2022-12-18T14:21:02.043Z,63.04
2022-12-18T14:23:43.424Z,62.23
2022-12-18T14:26:22.439Z,64.39
2022-12-18T14:28:53.834Z,63.05
2022-12-18T14:31:29.282Z,63.36
2022-12-18T14:33:59.384Z,64.52
2022-12-18T14:36:31.060Z,63.56
2022-12-18T14:39:01.792Z,63.04
2022-12-18T14:41:31.698Z,63.57
2022-12-18T14:44:09.320Z,62.34
2022-12-18T14:46:42.510Z,64.09
2022-12-18T14:49:36.500Z,63.29
2022-12-18T14:52:30.177Z,63.14
2022-12-18T14:55:00.391Z,61.34
2022-12-18T14:57:40.002Z,61.24
2022-12-18T15:00:18.906Z,62.32
2022-12-18T15:02:55.888Z,62.46
2022-12-18T15:05:35.712Z,58.98
2022-12-18T15:08:06.078Z,62.22
2022-12-18T15:10:36.827Z,61.01
2022-12-18T15:13:06.480Z,59.01
2022-12-18T15:15:39.969Z,61.93
2022-12-18T15:18:10.485Z,60.56
2022-12-18T15:20:54.111Z,59.80
2022-12-18T15:23:47.505Z,60.44
2022-12-18T15:26:19.493Z,60.69
2022-12-18T15:28:57.192Z,61.39
2022-12-18T15:31:31.920Z,62.50
2022-12-18T15:34:12.038Z,60.17
2022-12-18T15:36:42.798Z,60.48
2022-12-18T15:39:15.841Z,60.65
2022-12-18T15:42:05.785Z,61.01
2022-12-18T15:44:36.087Z,62.15
2022-12-18T15:47:05.899Z,61.12
2022-12-18T15:49:35.644Z,60.41
2022-12-18T15:52:05.677Z,62.78
2022-12-18T15:54:53.660Z,63.39
2022-12-18T15:57:27.114Z,63.48
2022-12-18T16:00:01.753Z,66.02
2022-12-18T16:02:34.359Z,65.24
2022-12-18T16:05:04.647Z,65.24
2022-12-18T16:07:34.419Z,66.69
2022-12-18T16:10:04.200Z,65.06
2022-12-18T16:12:34.489Z,64.59
2022-12-18T16:15:05.153Z,66.16
2022-12-18T16:17:36.285Z,66.17
2022-12-18T16:20:06.803Z,67.20
2022-12-18T16:22:36.496Z,67.69
2022-12-18T16:25:07.359Z,68.96
2022-12-18T16:27:37.214Z,69.42
2022-12-18T16:30:07.748Z,69.35
2022-12-18T16:32:37.498Z,69.33
2022-12-18T16:35:07.673Z,70.04
2022-12-18T16:37:37.379Z,69.77
2022-12-18T16:40:08.364Z,70.90
2022-12-18T16:42:39.453Z,71.48
2022-12-18T16:45:11.737Z,73.41
2022-12-18T16:47:42.205Z,71.70
2022-12-18T16:50:12.457Z,70.91
2022-12-18T16:52:42.826Z,72.86
2022-12-18T16:55:12.542Z,71.48
2022-12-18T16:57:42.224Z,71.17
2022-12-18T17:00:13.190Z,70.53
2022-12-18T17:02:43.686Z,70.77
2022-12-18T17:05:13.608Z,70.69
2022-12-18T17:07:44.223Z,69.68
2022-12-18T17:10:14.342Z,70.64
2022-12-18T17:12:44.076Z,71.08
2022-12-18T17:15:13.864Z,72.37
2022-12-18T17:17:43.579Z,72.90
2022-12-18T17:20:13.641Z,72.25
2022-12-18T17:22:43.371Z,72.34
2022-12-18T17:25:13.062Z,72.41
2022-12-18T17:27:42.827Z,73.61
2022-12-18T17:30:13.115Z,73.02
2022-12-18T17:32:43.527Z,73.19
2022-12-18T17:35:13.397Z,75.02
2022-12-18T17:37:43.128Z,75.33
2022-12-18T17:40:13.279Z,75.83
2022-12-18T17:42:43.031Z,76.05
2022-12-18T17:45:13.335Z,75.75
2022-12-18T17:47:43.385Z,76.23
2022-12-18T17:50:13.299Z,76.30
2022-12-18T17:52:43.245Z,76.43
2022-12-18T17:55:13.511Z,75.22
2022-12-18T17:57:43.780Z,75.64
2022-12-18T18:00:14.074Z,75.49
2022-12-18T18:02:45.187Z,74.98
2022-12-18T18:05:16.278Z,75.53
2022-12-18T18:07:47.536Z,76.19
2022-12-18T18:10:18.032Z,75.64
2022-12-18T18:13:06.191Z,75.66
2022-12-18T18:15:36.141Z,75.09
2022-12-18T18:18:08.796Z,75.23
2022-12-18T18:20:43.802Z,74.05
2022-12-18T18:23:15.020Z,74.83
2022-12-18T18:25:44.961Z,74.09
2022-12-18T18:28:15.259Z,73.82
2022-12-18T18:30:45.005Z,73.80
2022-12-18T18:33:14.968Z,72.50
2022-12-18T18:35:53.820Z,72.81
2022-12-18T18:38:24.348Z,73.03
2022-12-18T18:41:04.580Z,73.62
2022-12-18T18:43:35.324Z,72.37
2022-12-18T18:46:07.102Z,72.84
2022-12-18T18:48:38.626Z,72.22
2022-12-18T18:51:20.651Z,72.70
2022-12-18T18:53:54.054Z,73.30
2022-12-18T18:59:19.171Z,73.07
2022-12-18T19:01:54.553Z,73.79
2022-12-18T19:04:24.660Z,73.83
2022-12-18T19:06:55.459Z,74.56
2022-12-18T19:09:28.388Z,73.82
2022-12-18T19:12:17.916Z,73.10
2022-12-18T19:14:48.076Z,72.40
2022-12-18T19:17:18.210Z,72.40
2022-12-18T19:19:48.639Z,72.41
2022-12-18T19:22:21.173Z,70.23
2022-12-18T19:24:51.629Z,71.13
2022-12-18T19:27:21.406Z,70.62
2022-12-18T19:29:51.942Z,70.89
2022-12-18T19:32:22.194Z,71.11
2022-12-18T19:34:56.147Z,70.18
2022-12-18T19:37:26.973Z,70.14
2022-12-18T19:39:57.719Z,69.22
2022-12-18T19:42:34.812Z,69.83
2022-12-18T19:45:08.656Z,70.37
2022-12-18T19:47:38.732Z,69.33
2022-12-18T19:50:09.251Z,70.59
2022-12-18T19:52:39.025Z,70.73
2022-12-18T19:55:09.691Z,71.45
2022-12-18T19:57:39.406Z,71.82
2022-12-18T20:00:14.154Z,71.26
2022-12-18T20:02:48.656Z,71.13
2022-12-18T20:05:24.405Z,69.88
2022-12-18T20:07:54.612Z,69.97
2022-12-18T20:10:24.451Z,68.44
2022-12-18T20:12:54.179Z,68.89
2022-12-18T20:15:25.405Z,68.49
2022-12-18T20:17:55.434Z,69.33
2022-12-18T20:20:25.458Z,68.15
2022-12-18T20:22:55.571Z,69.02
2022-12-18T20:25:25.346Z,69.84
2022-12-18T20:27:55.641Z,70.72
2022-12-18T20:30:25.560Z,71.61
2022-12-18T20:32:55.636Z,72.18
2022-12-18T20:35:29.253Z,72.28
2022-12-18T20:38:00.886Z,72.27
2022-12-18T20:40:31.791Z,72.91
2022-12-18T20:43:01.670Z,72.73
2022-12-18T20:45:31.453Z,73.38
2022-12-18T20:48:02.701Z,73.22
2022-12-18T20:50:32.864Z,73.06
2022-12-18T20:53:02.842Z,72.80
2022-12-18T20:55:32.632Z,71.71
2022-12-18T20:58:02.613Z,72.86
2022-12-18T21:00:32.433Z,72.21
2022-12-18T21:03:02.260Z,72.59
2022-12-18T21:05:32.560Z,73.43
2022-12-18T21:08:03.043Z,73.46
2022-12-18T21:10:32.728Z,73.72
2022-12-18T21:13:04.582Z,73.44
2022-12-18T21:15:37.104Z,74.84
2022-12-18T21:18:07.456Z,75.79
2022-12-18T21:20:37.447Z,76.36
2022-12-18T21:23:15.579Z,76.72
2022-12-18T21:25:46.946Z,77.45
2022-12-18T21:28:19.783Z,78.03
2022-12-18T21:30:50.223Z,77.83
2022-12-18T21:33:20.006Z,78.38
2022-12-18T21:35:49.818Z,78.67
2022-12-18T21:38:19.547Z,79.33
2022-12-18T21:40:49.496Z,79.81
2022-12-18T21:43:37.545Z,79.94
2022-12-18T21:46:07.989Z,80.01
2022-12-18T21:48:40.140Z,80.34
2022-12-18T21:51:10.668Z,79.99
2022-12-18T21:53:40.390Z,80.71
2022-12-18T21:56:11.009Z,80.86
2022-12-18T21:58:55.420Z,81.48
2022-12-18T22:01:31.512Z,81.84
2022-12-18T22:04:08.453Z,82.58
2022-12-18T22:06:38.563Z,83.10
2022-12-18T22:09:09.076Z,83.30
2022-12-18T22:11:39.427Z,83.70
2022-12-18T22:14:10.018Z,83.75
2022-12-18T22:16:40.196Z,83.83
2022-12-18T22:19:12.878Z,84.27
2022-12-18T22:21:47.473Z,84.10
2022-12-18T22:24:21.495Z,84.38
2022-12-18T22:26:54.176Z,84.77
2022-12-18T22:29:47.489Z,85.53
2022-12-18T22:32:30.781Z,85.50
2022-12-18T22:35:10.628Z,85.57
2022-12-18T22:37:45.622Z,85.35
2022-12-18T22:40:26.460Z,85.91
2022-12-18T22:42:57.215Z,86.53
2022-12-18T22:45:29.471Z,87.05
2022-12-18T22:47:59.983Z,87.20
2022-12-18T22:50:29.752Z,86.97
2022-12-18T22:52:59.447Z,87.10
2022-12-18T22:55:29.169Z,87.08
2022-12-18T22:57:58.893Z,86.76
2022-12-18T23:00:28.655Z,86.94
2022-12-18T23:03:00.946Z,86.65
2022-12-18T23:05:32.843Z,86.61
2022-12-18T23:08:03.016Z,86.52
2022-12-18T23:10:33.060Z,86.44
2022-12-18T23:13:02.847Z,86.50
2022-12-18T23:15:32.569Z,86.67
2022-12-18T23:18:03.419Z,86.80
2022-12-18T23:20:33.417Z,86.35
2022-12-18T23:23:04.382Z,86.31
2022-12-18T23:25:34.197Z,86.08
2022-12-18T23:28:04.328Z,85.75
2022-12-18T23:30:34.405Z,85.78
2022-12-18T23:33:04.137Z,85.79
2022-12-18T23:35:33.989Z,85.71
2022-12-18T23:38:04.013Z,85.69
2022-12-18T23:40:33.801Z,85.72
2022-12-18T23:43:03.631Z,85.84
2022-12-18T23:45:33.515Z,85.73
2022-12-18T23:48:03.282Z,85.92
2022-12-18T23:50:35.790Z,86.15
2022-12-18T23:53:06.187Z,86.34
2022-12-18T23:55:41.038Z,86.50
2022-12-18T23:58:21.662Z,86.42
